createdAt,value
2019-04-01T00:00:43.473Z,66.09
2019-04-01T00:03:14.932Z,66.60
2019-04-01T00:05:46.385Z,66.33
2019-04-01T00:08:17.743Z,66.70
2019-04-01T00:10:49.104Z,66.96
2019-04-01T00:13:20.472Z,67.26
2019-04-01T00:15:51.804Z,67.35
2019-04-01T00:18:24.302Z,67.15
2019-04-01T00:20:55.555Z,67.32
2019-04-01T00:23:26.954Z,67.49
2019-04-01T00:25:58.272Z,67.75
2019-04-01T00:28:29.615Z,67.56
2019-04-01T00:31:00.969Z,67.66
2019-04-01T00:33:32.343Z,67.55
2019-04-01T00:36:03.678Z,67.47
2019-04-01T00:38:35.065Z,68.07
2019-04-01T00:41:06.474Z,67.66
2019-04-01T00:43:53.919Z,67.46
2019-04-01T00:46:25.448Z,67.56
2019-04-01T00:48:56.793Z,67.67
2019-04-01T00:51:28.128Z,67.84
2019-04-01T00:53:59.489Z,68.01
2019-04-01T00:56:30.868Z,67.95
2019-04-01T00:59:03.261Z,67.65
2019-04-01T01:01:34.609Z,68.69
2019-04-01T01:04:05.908Z,68.42
2019-04-01T01:06:37.275Z,68.50
2019-04-01T01:09:08.637Z,68.59
2019-04-01T01:11:40.032Z,68.92
2019-04-01T01:14:11.460Z,68.02
2019-04-01T01:16:42.818Z,68.31
2019-04-01T01:19:15.568Z,68.37
2019-04-01T01:21:46.875Z,67.94
2019-04-01T01:24:18.215Z,68.29
2019-04-01T01:26:49.598Z,68.72
2019-04-01T01:29:20.949Z,68.49
2019-04-01T01:31:52.298Z,68.37
2019-04-01T01:34:24.642Z,69.07
2019-04-01T01:36:55.946Z,68.92
2019-04-01T01:39:27.343Z,68.92
2019-04-01T01:41:58.721Z,68.81
2019-04-01T01:44:30.044Z,69.23
2019-04-01T01:47:01.380Z,69.48
2019-04-01T01:49:32.781Z,69.25
2019-04-01T01:52:04.099Z,69.88
2019-04-01T01:54:35.466Z,70.19
2019-04-01T01:57:06.801Z,69.24
2019-04-01T01:59:38.164Z,69.39
2019-04-01T02:02:09.530Z,69.55
2019-04-01T02:04:40.923Z,69.58
2019-04-01T02:07:12.268Z,69.39
2019-04-01T02:09:43.637Z,70.00
2019-04-01T02:12:14.993Z,70.81
2019-04-01T02:14:46.262Z,70.70
2019-04-01T02:17:17.635Z,71.11
2019-04-01T02:19:49.012Z,71.11
2019-04-01T02:22:20.457Z,71.47
2019-04-01T02:24:51.766Z,71.13
2019-04-01T02:27:23.118Z,72.20
2019-04-01T02:29:54.478Z,71.72
2019-04-01T02:32:25.877Z,72.01
2019-04-01T02:34:57.204Z,71.35
2019-04-01T02:37:28.539Z,71.86
2019-04-01T02:39:59.887Z,71.78
2019-04-01T02:42:31.227Z,73.07
2019-04-01T02:45:02.530Z,72.59
2019-04-01T02:47:33.908Z,73.49
2019-04-01T02:50:07.035Z,72.62
2019-04-01T02:52:38.404Z,72.66
2019-04-01T02:55:09.544Z,72.97
2019-04-01T02:57:40.880Z,73.39
2019-04-01T03:00:12.204Z,73.61
2019-04-01T03:02:43.544Z,73.14
2019-04-01T03:05:14.969Z,73.20
2019-04-01T03:07:46.364Z,72.80
2019-04-01T03:10:17.664Z,72.33
2019-04-01T03:12:49.061Z,72.60
2019-04-01T03:15:20.399Z,72.35
2019-04-01T03:17:51.727Z,72.98
2019-04-01T03:20:22.998Z,72.74
2019-04-01T03:22:54.374Z,72.81
2019-04-01T03:25:25.649Z,72.80
2019-04-01T03:27:57.005Z,72.80
2019-04-01T03:30:28.289Z,73.14
2019-04-01T03:32:59.753Z,72.78
2019-04-01T03:35:31.117Z,72.76
2019-04-01T03:38:02.627Z,72.56
2019-04-01T03:40:34.217Z,72.38
2019-04-01T03:43:05.654Z,73.05
2019-04-01T03:45:36.953Z,73.03
2019-04-01T03:48:08.345Z,72.70
2019-04-01T03:50:39.704Z,72.98
2019-04-01T03:53:11.057Z,73.90
2019-04-01T03:55:42.431Z,73.38
2019-04-01T03:58:13.758Z,73.41
2019-04-01T04:00:45.036Z,73.02
2019-04-01T04:03:16.372Z,72.84
2019-04-01T04:05:47.714Z,73.32
2019-04-01T04:08:19.081Z,72.62
2019-04-01T04:10:50.422Z,72.58
2019-04-01T04:13:21.815Z,71.34
2019-04-01T04:15:53.179Z,70.87
2019-04-01T04:18:24.555Z,69.21
2019-04-01T04:20:55.903Z,68.79
2019-04-01T04:23:27.339Z,67.34
2019-04-01T04:25:58.775Z,66.56
2019-04-01T04:28:30.138Z,65.45
2019-04-01T04:31:02.928Z,64.82
2019-04-01T04:33:34.285Z,63.97
2019-04-01T04:36:05.664Z,62.71
2019-04-01T04:38:37.048Z,62.57
2019-04-01T04:41:08.413Z,61.71
2019-04-01T04:43:39.830Z,61.11
2019-04-01T04:46:11.167Z,61.22
2019-04-01T04:48:42.483Z,60.59
2019-04-01T04:51:13.830Z,60.71
2019-04-01T04:53:45.158Z,59.80
2019-04-01T04:56:16.567Z,58.42
2019-04-01T04:58:47.944Z,58.01
2019-04-01T05:01:19.321Z,57.98
2019-04-01T05:03:50.677Z,56.88
2019-04-01T05:06:22.040Z,55.62
2019-04-01T05:08:54.390Z,55.70
2019-04-01T05:11:25.751Z,55.83
2019-04-01T05:13:57.376Z,54.46
2019-04-01T05:16:28.744Z,53.76
2019-04-01T05:19:00.146Z,53.18
2019-04-01T05:21:31.482Z,54.46
2019-04-01T05:24:02.998Z,55.29
2019-04-01T05:26:34.414Z,53.89
2019-04-01T05:29:05.787Z,54.49
2019-04-01T05:31:37.162Z,53.12
2019-04-01T05:34:09.631Z,53.98
2019-04-01T05:36:40.966Z,54.13
2019-04-01T05:39:12.293Z,54.03
2019-04-01T05:41:43.715Z,54.72
2019-04-01T05:44:15.000Z,53.47
2019-04-01T05:46:46.370Z,53.47
2019-04-01T05:49:19.034Z,53.75
2019-04-01T05:51:50.377Z,53.15
2019-04-01T05:54:21.776Z,52.55
2019-04-01T05:56:53.109Z,53.49
2019-04-01T05:59:24.555Z,52.04
2019-04-01T06:01:55.915Z,51.07
2019-04-01T06:04:27.282Z,51.17
2019-04-01T06:06:58.617Z,50.49
2019-04-01T06:09:29.975Z,50.49
2019-04-01T06:12:01.460Z,50.03
2019-04-01T06:14:32.852Z,50.64
2019-04-01T06:17:05.255Z,49.30
2019-04-01T06:19:37.930Z,48.34
2019-04-01T06:22:09.293Z,48.82
2019-04-01T06:24:40.606Z,48.36
2019-04-01T06:27:12.478Z,48.17
2019-04-01T06:29:44.074Z,47.96
2019-04-01T06:32:15.391Z,47.89
2019-04-01T06:34:52.684Z,47.13
2019-04-01T06:37:19.853Z,47.42
2019-04-01T06:39:52.260Z,47.02
2019-04-01T06:42:23.619Z,45.86
2019-04-01T06:44:55.066Z,45.27
2019-04-01T06:47:26.423Z,45.02
2019-04-01T06:49:57.776Z,45.23
2019-04-01T06:52:29.042Z,44.60
2019-04-01T06:55:00.388Z,44.49
2019-04-01T06:57:31.762Z,44.76
2019-04-01T07:00:03.316Z,42.81
2019-04-01T07:02:34.845Z,43.10
2019-04-01T07:05:12.382Z,42.56
2019-04-01T07:07:42.625Z,41.49
2019-04-01T07:10:13.974Z,41.40
2019-04-01T07:12:45.397Z,40.67
2019-04-01T07:15:16.750Z,40.39
2019-04-01T07:17:48.115Z,40.14
2019-04-01T07:20:19.528Z,39.27
2019-04-01T07:22:50.910Z,39.41
2019-04-01T07:25:22.368Z,38.76
2019-04-01T07:27:53.741Z,39.56
2019-04-01T07:30:25.231Z,39.68
2019-04-01T07:32:56.524Z,38.26
2019-04-01T07:35:27.925Z,38.20
2019-04-01T07:37:59.308Z,39.04
2019-04-01T07:40:30.723Z,37.47
2019-04-01T07:43:02.133Z,36.83
2019-04-01T07:45:33.558Z,37.27
2019-04-01T07:48:04.888Z,37.39
2019-04-01T07:50:36.409Z,36.84
2019-04-01T07:53:08.082Z,36.31
2019-04-01T07:55:41.096Z,36.34
2019-04-01T07:58:12.580Z,38.13
2019-04-01T08:00:44.119Z,38.13
2019-04-01T08:03:15.413Z,38.66
2019-04-01T08:05:46.800Z,38.19
2019-04-01T08:08:18.192Z,38.98
2019-04-01T08:10:49.536Z,37.16
2019-04-01T08:13:20.936Z,37.59
2019-04-01T08:15:52.312Z,38.02
2019-04-01T08:18:23.685Z,38.43
2019-04-01T08:20:55.048Z,38.43
2019-04-01T08:23:26.404Z,38.39
2019-04-01T08:25:57.799Z,38.74
2019-04-01T08:28:29.190Z,36.83
2019-04-01T08:31:09.095Z,37.29
2019-04-01T08:33:40.448Z,37.58
2019-04-01T08:36:11.812Z,35.57
2019-04-01T08:38:43.213Z,35.99
2019-04-01T08:41:14.573Z,33.99
2019-04-01T08:43:45.991Z,33.86
2019-04-01T08:46:17.422Z,33.25
2019-04-01T08:48:48.923Z,33.89
2019-04-01T08:51:20.291Z,33.11
2019-04-01T08:53:51.661Z,32.46
2019-04-01T08:56:23.009Z,33.03
2019-04-01T08:58:54.385Z,33.21
2019-04-01T09:01:35.260Z,33.15
2019-04-01T09:03:59.147Z,32.20
2019-04-01T09:06:31.489Z,32.03
2019-04-01T09:09:04.721Z,32.56
2019-04-01T09:11:38.443Z,33.04
2019-04-01T09:14:09.178Z,30.41
2019-04-01T09:16:41.440Z,33.69
2019-04-01T09:19:12.795Z,33.98
2019-04-01T09:21:45.171Z,32.26
2019-04-01T09:24:16.523Z,31.84
2019-04-01T09:26:47.854Z,33.08
2019-04-01T09:29:19.216Z,32.81
2019-04-01T09:31:50.585Z,32.61
2019-04-01T09:34:21.911Z,32.61
2019-04-01T09:36:53.319Z,33.67
2019-04-01T09:39:24.698Z,31.32
2019-04-01T09:41:56.005Z,31.98
2019-04-01T09:44:36.540Z,31.33
2019-04-01T09:47:00.401Z,31.17
2019-04-01T09:49:31.655Z,31.14
2019-04-01T09:52:03.981Z,31.33
2019-04-01T09:54:35.365Z,32.70
2019-04-01T09:57:17.506Z,32.22
2019-04-01T09:59:39.812Z,31.98
2019-04-01T10:02:11.156Z,31.56
2019-04-01T10:04:42.520Z,32.20
2019-04-01T10:07:13.829Z,30.52
2019-04-01T10:09:45.194Z,31.21
2019-04-01T10:12:16.577Z,30.95
2019-04-01T10:14:47.857Z,30.09
2019-04-01T10:17:19.212Z,28.94
2019-04-01T10:19:50.558Z,29.40
2019-04-01T10:22:21.941Z,29.43
2019-04-01T10:24:53.298Z,28.63
2019-04-01T10:27:24.636Z,27.66
2019-04-01T10:29:55.992Z,28.07
2019-04-01T10:32:27.363Z,27.88
2019-04-01T10:34:58.725Z,28.12
2019-04-01T10:37:29.994Z,28.25
2019-04-01T10:40:01.384Z,27.61
2019-04-01T10:42:32.862Z,27.92
2019-04-01T10:45:06.401Z,27.40
2019-04-01T10:47:37.856Z,26.57
2019-04-01T10:50:10.408Z,27.54
2019-04-01T10:52:44.012Z,27.66
2019-04-01T10:55:14.868Z,27.92
2019-04-01T10:57:46.232Z,27.97
2019-04-01T11:00:17.637Z,27.52
2019-04-01T11:02:50.202Z,27.23
2019-04-01T11:05:21.768Z,27.49
2019-04-01T11:07:53.109Z,27.32
2019-04-01T11:10:24.516Z,27.47
2019-04-01T11:12:55.879Z,26.77
2019-04-01T11:15:27.136Z,26.49
2019-04-01T11:17:58.502Z,26.90
2019-04-01T11:20:29.910Z,27.51
2019-04-01T11:23:02.860Z,26.68
2019-04-01T11:25:34.363Z,25.96
2019-04-01T11:28:05.710Z,26.44
2019-04-01T11:30:39.193Z,26.02
2019-04-01T11:33:10.515Z,25.42
2019-04-01T11:35:41.980Z,25.33
2019-04-01T11:38:13.466Z,25.29
2019-04-01T11:40:45.001Z,25.88
2019-04-01T11:43:16.298Z,26.15
2019-04-01T11:45:47.672Z,25.05
2019-04-01T11:48:19.052Z,25.09
2019-04-01T11:50:50.498Z,25.30
2019-04-01T11:53:21.816Z,25.17
2019-04-01T11:55:53.178Z,25.93
2019-04-01T11:58:24.426Z,26.76
2019-04-01T12:00:55.835Z,26.05
2019-04-01T12:03:27.200Z,26.45
2019-04-01T12:05:58.564Z,26.04
2019-04-01T12:08:30.639Z,25.96
2019-04-01T12:11:02.326Z,25.84
2019-04-01T12:13:33.723Z,26.43
2019-04-01T12:16:05.945Z,26.90
2019-04-01T12:18:38.183Z,27.21
2019-04-01T12:21:09.574Z,27.07
2019-04-01T12:23:40.926Z,27.00
2019-04-01T12:26:15.336Z,26.30
2019-04-01T12:28:45.290Z,26.93
2019-04-01T12:31:16.666Z,26.72
2019-04-01T12:33:48.052Z,26.97
2019-04-01T12:36:19.633Z,26.56
2019-04-01T12:38:53.660Z,26.38
2019-04-01T12:41:24.058Z,26.27
2019-04-01T12:43:55.404Z,26.71
2019-04-01T12:46:26.764Z,25.32
2019-04-01T12:48:58.139Z,25.88
2019-04-01T12:51:29.466Z,25.69
2019-04-01T12:54:00.809Z,26.10
2019-04-01T12:56:32.145Z,26.49
2019-04-01T12:59:03.483Z,27.01
2019-04-01T13:01:34.843Z,27.97
2019-04-01T13:04:06.190Z,28.61
2019-04-01T13:06:37.541Z,28.64
2019-04-01T13:09:08.896Z,28.58
2019-04-01T13:11:40.852Z,28.00
2019-04-01T13:14:13.719Z,28.16
2019-04-01T13:16:45.236Z,27.25
2019-04-01T13:19:16.636Z,27.81
2019-04-01T13:21:48.007Z,28.41
2019-04-01T13:24:19.342Z,28.11
2019-04-01T13:26:51.098Z,28.34
2019-04-01T13:29:24.065Z,29.05
2019-04-01T13:31:55.730Z,28.60
2019-04-01T13:34:27.100Z,28.91
2019-04-01T13:36:58.367Z,29.54
2019-04-01T13:39:29.705Z,29.28
2019-04-01T13:42:00.984Z,29.23
2019-04-01T13:44:37.262Z,29.43
2019-04-01T13:47:05.389Z,29.08
2019-04-01T13:49:36.740Z,29.25
2019-04-01T13:52:08.106Z,29.15
2019-04-01T13:54:39.473Z,29.66
2019-04-01T13:57:10.757Z,30.31
2019-04-01T13:59:49.166Z,29.69
2019-04-01T14:02:15.231Z,30.50
2019-04-01T14:04:46.594Z,30.62
2019-04-01T14:07:17.955Z,30.76
2019-04-01T14:09:50.731Z,30.84
2019-04-01T14:12:22.133Z,30.88
2019-04-01T14:14:53.521Z,31.36
2019-04-01T14:17:24.911Z,31.14
2019-04-01T14:19:56.248Z,30.63
2019-04-01T14:22:27.658Z,31.51
2019-04-01T14:24:59.039Z,31.37
2019-04-01T14:27:33.302Z,31.42
2019-04-01T14:30:06.256Z,30.92
2019-04-01T14:32:37.762Z,31.33
2019-04-01T14:35:10.963Z,31.29
2019-04-01T14:37:42.364Z,31.48
2019-04-01T14:40:13.711Z,32.30
2019-04-01T14:42:47.021Z,33.38
2019-04-01T14:45:18.009Z,34.29
2019-04-01T14:47:56.984Z,34.42
2019-04-01T14:50:22.414Z,34.70
2019-04-01T14:52:53.738Z,35.00
2019-04-01T14:55:25.111Z,35.36
2019-04-01T14:57:56.411Z,35.02
2019-04-01T15:00:29.498Z,35.24
2019-04-01T15:03:00.982Z,35.66
2019-04-01T15:05:32.354Z,35.70
2019-04-01T15:08:03.808Z,36.00
2019-04-01T15:10:35.192Z,36.05
2019-04-01T15:13:06.645Z,35.71
2019-04-01T15:15:38.072Z,35.93
2019-04-01T15:18:09.962Z,35.99
2019-04-01T15:20:41.614Z,35.90
2019-04-01T15:23:12.896Z,36.13
2019-04-01T15:25:44.327Z,36.53
2019-04-01T15:28:15.778Z,36.73
2019-04-01T15:30:47.218Z,37.08
2019-04-01T15:33:18.632Z,37.22
2019-04-01T15:35:50.068Z,37.65
2019-04-01T15:38:22.270Z,38.18
2019-04-01T15:40:54.108Z,38.33
2019-04-01T15:43:25.433Z,38.92
2019-04-01T15:45:56.767Z,38.57
2019-04-01T15:48:28.216Z,39.09
2019-04-01T15:50:59.551Z,38.64
2019-04-01T15:53:30.936Z,39.21
2019-04-01T15:56:02.376Z,39.31
2019-04-01T15:58:33.777Z,39.57
2019-04-01T16:01:05.055Z,39.70
2019-04-01T16:03:36.510Z,39.91
2019-04-01T16:06:08.038Z,39.81
2019-04-01T16:08:39.435Z,39.42
2019-04-01T16:11:10.771Z,40.24
2019-04-01T16:13:42.340Z,40.31
2019-04-01T16:16:14.862Z,40.23
2019-04-01T16:18:46.369Z,40.09
2019-04-01T16:21:17.731Z,40.54
2019-04-01T16:23:49.152Z,40.31
2019-04-01T16:26:20.574Z,40.12
2019-04-01T16:28:51.988Z,40.65
2019-04-01T16:31:23.609Z,40.35
2019-04-01T16:33:55.165Z,40.49
2019-04-01T16:36:26.625Z,40.46
2019-04-01T16:38:58.014Z,40.34
2019-04-01T16:41:29.360Z,40.84
2019-04-01T16:44:00.711Z,40.67
2019-04-01T16:46:32.078Z,40.98
2019-04-01T16:49:03.542Z,40.77
2019-04-01T16:51:34.895Z,40.69
2019-04-01T16:54:06.172Z,40.67
2019-04-01T16:56:38.060Z,41.18
2019-04-01T16:59:09.758Z,41.45
2019-04-01T17:01:41.663Z,41.25
2019-04-01T17:04:14.948Z,41.25
2019-04-01T17:06:46.371Z,41.13
2019-04-01T17:09:17.735Z,41.45
2019-04-01T17:11:49.127Z,40.89
2019-04-01T17:14:20.402Z,41.56
2019-04-01T17:16:51.798Z,41.27
2019-04-01T17:19:23.161Z,41.32
2019-04-01T17:21:54.537Z,41.47
2019-04-01T17:24:25.962Z,41.14
2019-04-01T17:27:00.506Z,41.17
2019-04-01T17:29:32.064Z,41.48
2019-04-01T17:32:03.392Z,41.12
2019-04-01T17:34:34.763Z,41.27
2019-04-01T17:37:06.085Z,40.95
2019-04-01T17:39:37.535Z,40.77
2019-04-01T17:42:08.878Z,40.48
2019-04-01T17:44:40.328Z,40.93
2019-04-01T17:47:12.176Z,40.91
2019-04-01T17:49:43.503Z,40.30
2019-04-01T17:52:14.894Z,40.09
2019-04-01T17:54:48.001Z,39.91
2019-04-01T17:57:19.317Z,40.06
2019-04-01T17:59:50.711Z,39.84
2019-04-01T18:02:29.607Z,39.20
2019-04-01T18:05:00.948Z,39.48
2019-04-01T18:07:32.326Z,39.03
2019-04-01T18:10:04.290Z,39.24
2019-04-01T18:12:35.803Z,39.83
2019-04-01T18:15:07.160Z,39.97
2019-04-01T18:17:38.537Z,39.57
2019-04-01T18:20:09.888Z,39.68
2019-04-01T18:22:42.814Z,39.26
2019-04-01T18:25:15.414Z,39.58
2019-04-01T18:27:46.780Z,39.14
2019-04-01T18:30:18.147Z,39.25
2019-04-01T18:32:53.377Z,38.79
2019-04-01T18:35:22.646Z,39.77
2019-04-01T18:37:53.993Z,39.21
2019-04-01T18:40:32.728Z,38.92
2019-04-01T18:43:00.007Z,39.09
2019-04-01T18:45:31.479Z,39.09
2019-04-01T18:48:02.872Z,38.85
2019-04-01T18:50:34.248Z,39.06
2019-04-01T18:53:06.410Z,38.86
2019-04-01T18:55:38.738Z,38.71
2019-04-01T18:58:10.111Z,38.88
2019-04-01T19:00:41.510Z,39.26
2019-04-01T19:03:12.858Z,38.97
2019-04-01T19:05:46.859Z,38.95
2019-04-01T19:08:17.281Z,38.82
2019-04-01T19:11:01.519Z,38.45
2019-04-01T19:13:21.747Z,38.51
2019-04-01T19:15:53.794Z,38.55
2019-04-01T19:18:25.900Z,38.42
2019-04-01T19:21:02.994Z,37.90
2019-04-01T19:23:31.102Z,38.28
2019-04-01T19:26:02.795Z,37.88
2019-04-01T19:28:35.180Z,37.60
2019-04-01T19:31:06.502Z,37.04
2019-04-01T19:33:38.256Z,37.23
2019-04-01T19:36:10.108Z,36.54
2019-04-01T19:38:41.465Z,36.45
2019-04-01T19:41:12.823Z,36.44
2019-04-01T19:43:45.106Z,35.91
2019-04-01T19:46:16.775Z,35.97
2019-04-01T19:48:49.168Z,35.88
2019-04-01T19:51:20.556Z,35.79
2019-04-01T19:53:52.390Z,35.94
2019-04-01T19:56:24.762Z,35.80
2019-04-01T19:58:56.148Z,35.75
2019-04-01T20:01:28.296Z,35.71
2019-04-01T20:04:00.521Z,35.84
2019-04-01T20:06:31.896Z,35.63
2019-04-01T20:09:04.812Z,35.69
2019-04-01T20:11:36.158Z,35.87
2019-04-01T20:14:07.521Z,35.89
2019-04-01T20:16:38.803Z,36.31
2019-04-01T20:19:10.192Z,35.64
2019-04-01T20:21:41.533Z,36.22
2019-04-01T20:24:12.962Z,36.27
2019-04-01T20:26:44.351Z,36.16
2019-04-01T20:29:15.743Z,36.29
2019-04-01T20:31:47.030Z,35.87
2019-04-01T20:34:20.068Z,36.49
2019-04-01T20:36:51.647Z,36.54
2019-04-01T20:39:23.100Z,36.67
2019-04-01T20:41:54.494Z,36.57
2019-04-01T20:44:25.882Z,36.82
2019-04-01T20:46:57.252Z,36.72
2019-04-01T20:49:29.363Z,37.01
2019-04-01T20:52:01.931Z,37.07
2019-04-01T20:54:33.337Z,36.63
2019-04-01T20:57:05.260Z,36.80
2019-04-01T20:59:36.858Z,37.22
2019-04-01T21:02:08.212Z,37.86
2019-04-01T21:04:39.561Z,37.63
2019-04-01T21:07:10.847Z,37.66
2019-04-01T21:09:42.227Z,37.38
2019-04-01T21:12:13.628Z,37.64
2019-04-01T21:14:46.693Z,37.86
2019-04-01T21:17:18.125Z,37.77
2019-04-01T21:19:49.488Z,37.58
2019-04-01T21:22:20.785Z,38.19
2019-04-01T21:24:52.130Z,37.79
2019-04-01T21:27:24.154Z,38.08
2019-04-01T21:29:57.022Z,38.68
2019-04-01T21:32:28.392Z,38.57
2019-04-01T21:34:59.730Z,38.54
2019-04-01T21:37:31.091Z,38.54
2019-04-01T21:40:02.451Z,38.86
2019-04-01T21:42:33.774Z,38.44
2019-04-01T21:45:08.348Z,38.78
2019-04-01T21:47:40.211Z,39.22
2019-04-01T21:50:12.556Z,39.08
2019-04-01T21:52:43.917Z,39.46
2019-04-01T21:55:15.278Z,39.36
2019-04-01T21:57:46.772Z,39.41
2019-04-01T22:00:35.815Z,39.40
2019-04-01T22:03:07.293Z,39.66
2019-04-01T22:05:38.649Z,39.44
2019-04-01T22:08:09.970Z,39.64
2019-04-01T22:10:41.343Z,40.09
2019-04-01T22:13:12.580Z,39.87
2019-04-01T22:15:44.052Z,40.15
2019-04-01T22:18:15.406Z,40.19
2019-04-01T22:20:46.830Z,39.92
2019-04-01T22:23:18.206Z,39.91
2019-04-01T22:25:49.570Z,40.49
2019-04-01T22:28:21.254Z,40.08
2019-04-01T22:30:53.663Z,40.06
2019-04-01T22:33:27.727Z,40.46
2019-04-01T22:35:58.100Z,40.63
2019-04-01T22:38:29.450Z,40.39
2019-04-01T22:41:00.814Z,40.49
2019-04-01T22:43:32.171Z,40.85
2019-04-01T22:46:03.541Z,40.86
2019-04-01T22:48:34.897Z,41.01
2019-04-01T22:51:06.198Z,40.97
2019-04-01T22:53:37.541Z,41.07
2019-04-01T22:56:08.912Z,41.51
2019-04-01T22:58:40.407Z,41.56
2019-04-01T23:01:11.708Z,41.80
2019-04-01T23:03:43.071Z,41.85
2019-04-01T23:06:14.441Z,42.07
2019-04-01T23:08:45.823Z,42.28
2019-04-01T23:11:17.069Z,41.68
2019-04-01T23:13:48.442Z,42.02
2019-04-01T23:16:20.063Z,41.61
2019-04-01T23:18:51.410Z,42.04
2019-04-01T23:21:22.712Z,42.45
2019-04-01T23:23:54.061Z,42.55
2019-04-01T23:26:26.713Z,42.68
2019-04-01T23:28:58.741Z,42.53
2019-04-01T23:31:30.035Z,42.78
2019-04-01T23:34:01.283Z,43.34
2019-04-01T23:36:32.501Z,43.03
2019-04-01T23:39:05.663Z,43.15
2019-04-01T23:41:37.498Z,42.91
2019-04-01T23:44:08.687Z,42.90
2019-04-01T23:46:39.914Z,43.11
2019-04-01T23:49:11.552Z,42.76
2019-04-01T23:51:42.997Z,43.25
2019-04-01T23:54:14.208Z,43.24
2019-04-01T23:56:45.383Z,43.44
2019-04-01T23:59:16.711Z,43.36
